createdAt,value
2019-03-24T00:04:00.115Z,16.65
2019-03-24T00:09:06.912Z,18.30
2019-03-24T00:14:11.024Z,17.55
2019-03-24T00:19:15.167Z,12.58
2019-03-24T00:24:19.300Z,13.80
2019-03-24T00:29:23.596Z,15.43
2019-03-24T00:34:27.768Z,18.90
2019-03-24T00:39:32.097Z,16.32
2019-03-24T00:44:36.976Z,14.80
2019-03-24T00:49:43.657Z,17.80
2019-03-24T00:54:48.972Z,18.87
2019-03-24T00:59:54.448Z,18.50
2019-03-24T01:04:59.777Z,18.20
2019-03-24T01:10:05.137Z,14.83
2019-03-24T01:15:09.760Z,19.48
2019-03-24T01:20:16.078Z,19.17
2019-03-24T01:25:20.414Z,19.57
2019-03-24T01:30:24.782Z,19.57
2019-03-24T01:35:30.420Z,16.12
2019-03-24T01:40:34.929Z,20.55
2019-03-24T01:45:39.848Z,21.45
2019-03-24T01:50:44.784Z,18.75
2019-03-24T01:55:49.727Z,19.92
2019-03-24T02:00:55.472Z,19.25
2019-03-24T02:05:59.753Z,20.75
2019-03-24T02:11:04.298Z,20.70
2019-03-24T02:16:09.830Z,20.35
2019-03-24T02:21:14.503Z,19.25
2019-03-24T02:26:19.029Z,19.48
2019-03-24T02:31:23.148Z,19.48
2019-03-24T02:36:29.477Z,21.55
2019-03-24T02:41:33.921Z,17.00
2019-03-24T02:46:40.565Z,19.92
2019-03-24T02:51:45.690Z,21.62
2019-03-24T02:56:50.974Z,17.77
2019-03-24T03:01:56.283Z,19.35
2019-03-24T03:07:01.339Z,15.63
2019-03-24T03:12:08.283Z,17.90
2019-03-24T03:17:13.727Z,20.80
2019-03-24T03:22:18.756Z,21.65
2019-03-24T03:27:24.573Z,21.23
2019-03-24T03:32:29.709Z,21.55
2019-03-24T03:37:33.904Z,16.45
2019-03-24T03:42:38.551Z,23.75
2019-03-24T03:47:43.392Z,24.43
2019-03-24T03:52:47.918Z,22.67
2019-03-24T03:57:52.621Z,18.50
2019-03-24T04:02:58.536Z,22.52
2019-03-24T04:08:02.960Z,20.05
2019-03-24T04:13:07.178Z,24.90
2019-03-24T04:18:11.274Z,24.50
2019-03-24T04:23:16.866Z,24.12
2019-03-24T04:28:22.245Z,25.40
2019-03-24T04:33:26.511Z,24.87
2019-03-24T04:38:32.284Z,24.12
2019-03-24T04:43:38.195Z,26.65
2019-03-24T04:48:42.668Z,25.27
2019-03-24T04:53:48.011Z,25.62
2019-03-24T04:58:52.222Z,23.77
2019-03-24T05:03:56.702Z,24.10
2019-03-24T05:09:02.341Z,24.10
2019-03-24T05:14:06.839Z,23.62
2019-03-24T05:19:11.892Z,26.52
2019-03-24T05:24:15.990Z,22.95
2019-03-24T05:29:20.532Z,23.77
2019-03-24T05:34:24.648Z,25.43
2019-03-24T05:39:30.594Z,21.97
2019-03-24T05:44:34.686Z,23.87
2019-03-24T05:49:41.750Z,24.47
2019-03-24T05:54:47.070Z,23.10
2019-03-24T05:59:51.879Z,22.52
2019-03-24T06:04:56.701Z,25.00
2019-03-24T06:10:00.820Z,26.82
2019-03-24T06:15:07.028Z,25.35
2019-03-24T06:20:12.317Z,24.98
2019-03-24T06:25:16.848Z,23.77
2019-03-24T06:30:24.853Z,24.15
2019-03-24T06:35:29.092Z,21.15
2019-03-24T06:40:33.244Z,17.82
2019-03-24T06:45:37.364Z,16.95
2019-03-24T06:50:42.606Z,15.53
2019-03-24T06:55:48.845Z,16.75
2019-03-24T07:00:55.006Z,15.00
2019-03-24T07:06:00.680Z,13.35
2019-03-24T07:11:10.514Z,11.48
2019-03-24T07:16:10.921Z,9.25
2019-03-24T07:21:15.029Z,10.60
2019-03-24T07:26:19.161Z,9.28
2019-03-24T07:31:26.054Z,6.08
2019-03-24T07:36:30.173Z,5.17
2019-03-24T07:41:34.339Z,4.95
2019-03-24T07:46:41.675Z,4.87
2019-03-24T07:51:45.806Z,4.55
2019-03-24T07:56:50.078Z,3.55
2019-03-24T08:01:54.656Z,2.85
2019-03-24T08:06:59.709Z,4.15
2019-03-24T08:12:03.824Z,4.65
2019-03-24T08:17:09.059Z,4.25
2019-03-24T08:22:14.253Z,4.50
2019-03-24T08:27:19.246Z,4.47
2019-03-24T08:32:23.976Z,3.27
2019-03-24T08:37:28.103Z,3.72
2019-03-24T08:42:32.388Z,4.20
2019-03-24T08:47:36.802Z,4.10
2019-03-24T08:52:41.327Z,4.62
2019-03-24T08:57:46.352Z,4.50
2019-03-24T09:02:50.940Z,3.35
2019-03-24T09:07:56.596Z,3.37
2019-03-24T09:13:01.452Z,4.78
2019-03-24T09:18:06.814Z,4.55
2019-03-24T09:23:11.042Z,3.70
2019-03-24T09:28:15.427Z,4.50
2019-03-24T09:33:20.496Z,5.37
2019-03-24T09:38:26.363Z,4.00
2019-03-24T09:43:32.736Z,5.10
2019-03-24T09:48:37.429Z,3.40
2019-03-24T09:53:41.559Z,3.95
2019-03-24T09:58:46.549Z,3.20
2019-03-24T10:03:51.029Z,3.33
2019-03-24T10:08:58.400Z,4.10
2019-03-24T10:14:04.292Z,3.00
2019-03-24T10:19:13.848Z,2.57
2019-03-24T10:24:14.992Z,2.85
2019-03-24T10:29:19.121Z,2.58
2019-03-24T10:34:24.636Z,2.10
2019-03-24T10:39:32.398Z,2.85
2019-03-24T10:44:37.405Z,1.60
2019-03-24T10:49:41.506Z,2.10
2019-03-24T10:54:46.424Z,2.30
2019-03-24T10:59:50.582Z,3.05
2019-03-24T11:04:54.733Z,3.05
2019-03-24T11:09:59.640Z,2.62
2019-03-24T11:15:05.195Z,2.95
2019-03-24T11:20:11.181Z,3.52
2019-03-24T11:30:20.732Z,1.95
2019-03-24T11:35:25.787Z,2.42
2019-03-24T11:40:30.965Z,2.42
2019-03-24T11:45:36.438Z,1.10
2019-03-24T11:50:41.631Z,1.40
2019-03-24T11:55:45.966Z,1.30
2019-03-24T12:00:51.043Z,1.80
2019-03-24T12:05:55.868Z,1.50
2019-03-24T12:11:00.102Z,1.80
2019-03-24T12:16:04.610Z,1.25
2019-03-24T12:21:10.256Z,2.05
2019-03-24T12:26:15.566Z,1.70
2019-03-24T12:31:19.665Z,1.77
2019-03-24T12:36:24.167Z,1.47
2019-03-24T12:41:28.573Z,1.70
2019-03-24T12:46:33.015Z,1.57
2019-03-24T12:51:37.746Z,0.45
2019-03-24T12:56:41.986Z,2.12
2019-03-24T13:01:46.423Z,1.50
2019-03-24T13:06:50.737Z,1.80
2019-03-24T13:11:55.205Z,1.40
2019-03-24T13:16:59.310Z,2.00
2019-03-24T13:22:04.563Z,1.72
2019-03-24T13:27:08.904Z,1.60
2019-03-24T13:32:13.019Z,1.75
2019-03-24T13:37:19.107Z,2.08
2019-03-24T13:42:23.313Z,1.13
2019-03-24T13:47:28.730Z,1.70
2019-03-24T13:52:33.682Z,1.72
2019-03-24T13:57:38.954Z,1.10
2019-03-24T14:02:43.057Z,1.50
2019-03-24T14:07:47.735Z,1.07
2019-03-24T14:12:52.044Z,1.40
2019-03-24T14:17:56.575Z,1.30
2019-03-24T14:23:03.337Z,1.52
2019-03-24T14:28:08.378Z,1.57
2019-03-24T14:33:13.491Z,1.30
2019-03-24T14:38:17.986Z,2.02
2019-03-24T14:43:23.420Z,1.90
2019-03-24T14:48:28.737Z,1.85
2019-03-24T14:53:34.730Z,1.95
2019-03-24T14:58:39.280Z,1.72
2019-03-24T15:03:43.292Z,1.60
2019-03-24T15:08:47.581Z,1.60
2019-03-24T15:13:51.596Z,1.60
2019-03-24T15:18:56.550Z,1.32
2019-03-24T15:24:02.020Z,1.72
2019-03-24T15:29:07.844Z,1.87
2019-03-24T15:34:12.202Z,1.47
2019-03-24T15:39:17.450Z,1.47
2019-03-24T15:44:24.839Z,1.98
2019-03-24T15:49:28.939Z,1.87
2019-03-24T15:54:36.856Z,1.40
2019-03-24T15:59:41.917Z,1.50
2019-03-24T16:04:46.285Z,2.47
2019-03-24T16:09:52.426Z,1.70
2019-03-24T16:14:56.585Z,1.98
2019-03-24T16:20:01.361Z,1.82
2019-03-24T16:25:06.337Z,2.35
2019-03-24T16:30:14.985Z,2.60
2019-03-24T16:35:20.179Z,2.47
2019-03-24T16:40:27.871Z,2.10
2019-03-24T16:45:33.305Z,2.92
2019-03-24T16:50:39.037Z,2.12
2019-03-24T16:55:43.229Z,1.87
2019-03-24T17:00:47.830Z,2.22
2019-03-24T17:05:52.673Z,2.20
2019-03-24T17:10:56.981Z,2.27
2019-03-24T17:16:01.160Z,3.00
2019-03-24T17:21:06.567Z,2.15
2019-03-24T17:26:10.899Z,2.50
2019-03-24T17:31:15.969Z,3.10
2019-03-24T17:36:20.195Z,2.60
2019-03-24T17:41:24.519Z,3.72
2019-03-24T17:46:29.285Z,3.67
2019-03-24T17:51:33.815Z,4.10
2019-03-24T17:56:37.788Z,4.45
2019-03-24T18:01:41.789Z,4.83
2019-03-24T18:06:46.959Z,4.83
2019-03-24T18:11:51.925Z,5.83
2019-03-24T18:16:56.302Z,6.08
2019-03-24T18:22:11.079Z,6.83
2019-03-24T18:27:07.843Z,9.18
2019-03-24T18:32:11.992Z,8.45
2019-03-24T18:37:16.297Z,8.08
2019-03-24T18:42:21.302Z,9.28
2019-03-24T18:47:26.445Z,9.65
2019-03-24T18:52:30.917Z,12.50
2019-03-24T18:57:35.928Z,25.45
2019-03-24T19:02:40.914Z,31.97
2019-03-24T19:07:45.855Z,30.05
2019-03-24T19:12:51.806Z,25.20
2019-03-24T19:17:57.479Z,18.17
2019-03-24T19:23:01.656Z,13.80
2019-03-24T19:28:05.776Z,12.05
2019-03-24T19:33:09.958Z,12.00
2019-03-24T19:38:14.600Z,13.93
2019-03-24T19:43:19.077Z,13.65
2019-03-24T19:48:34.451Z,14.68
2019-03-24T19:53:40.297Z,13.93
2019-03-24T19:58:45.279Z,11.40
2019-03-24T20:03:50.315Z,9.88
2019-03-24T20:08:54.551Z,10.78
2019-03-24T20:13:59.416Z,9.25
2019-03-24T20:19:06.982Z,10.53
2019-03-24T20:24:12.644Z,14.87
2019-03-24T20:29:17.236Z,16.70
2019-03-24T20:34:22.977Z,15.58
2019-03-24T20:39:27.789Z,18.67
2019-03-24T20:44:32.346Z,17.32
2019-03-24T20:49:38.660Z,30.17
2019-03-24T20:54:44.377Z,31.23
2019-03-24T20:59:48.553Z,30.70
2019-03-24T21:04:52.549Z,37.03
2019-03-24T21:09:56.495Z,35.52
2019-03-24T21:15:00.386Z,40.38
2019-03-24T21:20:05.297Z,41.65
2019-03-24T21:25:09.615Z,40.30
2019-03-24T21:30:14.668Z,43.50
2019-03-24T21:35:24.779Z,42.40
2019-03-24T21:40:32.432Z,40.33
2019-03-24T21:45:37.020Z,39.42
2019-03-24T21:50:46.839Z,41.18
2019-03-24T21:55:51.724Z,43.90
2019-03-24T22:00:56.865Z,48.30
2019-03-24T22:06:01.065Z,50.75
2019-03-24T22:11:09.235Z,45.15
2019-03-24T22:16:14.617Z,47.25
2019-03-24T22:21:19.704Z,49.08
2019-03-24T22:26:23.818Z,51.23
2019-03-24T22:31:28.225Z,42.10
2019-03-24T22:36:32.950Z,43.10
2019-03-24T22:41:37.056Z,39.38
2019-03-24T22:46:41.692Z,41.65
2019-03-24T22:51:46.073Z,42.55
2019-03-24T22:56:50.883Z,41.83
2019-03-24T23:01:56.479Z,42.60
2019-03-24T23:07:02.749Z,43.63
2019-03-24T23:12:06.936Z,44.85
2019-03-24T23:17:11.236Z,47.73
2019-03-24T23:22:15.466Z,45.90
2019-03-24T23:27:19.610Z,42.50
2019-03-24T23:32:23.998Z,42.48
2019-03-24T23:37:28.427Z,42.83
2019-03-24T23:42:33.172Z,45.17
2019-03-24T23:47:37.830Z,45.00
2019-03-24T23:52:42.580Z,44.63
2019-03-24T23:57:46.724Z,51.70
